sensor_id;sensor_type;location;lat;lon;timestamp;temperature;humidity
48328;DHT22;34136;51.022;7.082;2023-02-13T00:00:58;9.10;5.00
48328;DHT22;34136;51.022;7.082;2023-02-13T00:03:44;9.10;4.30
48328;DHT22;34136;51.022;7.082;2023-02-13T00:06:30;9.10;4.00
48328;DHT22;34136;51.022;7.082;2023-02-13T00:09:16;9.10;3.70
48328;DHT22;34136;51.022;7.082;2023-02-13T00:12:03;9.00;4.60
48328;DHT22;34136;51.022;7.082;2023-02-13T00:14:50;9.00;4.70
48328;DHT22;34136;51.022;7.082;2023-02-13T00:17:36;9.00;4.90
48328;DHT22;34136;51.022;7.082;2023-02-13T00:20:22;9.00;4.20
48328;DHT22;34136;51.022;7.082;2023-02-13T00:23:08;9.00;4.70
48328;DHT22;34136;51.022;7.082;2023-02-13T00:25:54;9.00;4.10
48328;DHT22;34136;51.022;7.082;2023-02-13T00:28:41;9.00;4.80
48328;DHT22;34136;51.022;7.082;2023-02-13T00:31:27;9.00;4.60
48328;DHT22;34136;51.022;7.082;2023-02-13T00:34:13;9.00;4.50
48328;DHT22;34136;51.022;7.082;2023-02-13T00:36:59;9.00;4.20
48328;DHT22;34136;51.022;7.082;2023-02-13T00:39:46;9.00;4.00
48328;DHT22;34136;51.022;7.082;2023-02-13T00:42:32;9.00;4.10
48328;DHT22;34136;51.022;7.082;2023-02-13T00:45:19;9.00;4.40
48328;DHT22;34136;51.022;7.082;2023-02-13T00:48:06;9.00;4.00
48328;DHT22;34136;51.022;7.082;2023-02-13T00:50:52;9.00;4.00
48328;DHT22;34136;51.022;7.082;2023-02-13T00:53:39;8.90;4.70
48328;DHT22;34136;51.022;7.082;2023-02-13T00:56:27;9.00;4.70
48328;DHT22;34136;51.022;7.082;2023-02-13T00:59:15;9.00;4.50
48328;DHT22;34136;51.022;7.082;2023-02-13T01:02:03;9.00;4.50
48328;DHT22;34136;51.022;7.082;2023-02-13T01:04:50;8.90;4.30
48328;DHT22;34136;51.022;7.082;2023-02-13T01:07:38;8.90;5.00
48328;DHT22;34136;51.022;7.082;2023-02-13T01:10:25;8.80;4.90
48328;DHT22;34136;51.022;7.082;2023-02-13T01:13:12;8.80;5.10
48328;DHT22;34136;51.022;7.082;2023-02-13T01:15:58;8.80;5.30
48328;DHT22;34136;51.022;7.082;2023-02-13T01:18:45;8.80;5.00
48328;DHT22;34136;51.022;7.082;2023-02-13T01:21:31;8.80;5.00
48328;DHT22;34136;51.022;7.082;2023-02-13T01:24:21;8.80;5.70
48328;DHT22;34136;51.022;7.082;2023-02-13T01:27:07;8.80;5.60
48328;DHT22;34136;51.022;7.082;2023-02-13T01:29:54;8.70;5.80
48328;DHT22;34136;51.022;7.082;2023-02-13T01:32:42;8.70;6.30
48328;DHT22;34136;51.022;7.082;2023-02-13T01:35:30;8.70;5.50
48328;DHT22;34136;51.022;7.082;2023-02-13T01:38:17;8.70;5.90
48328;DHT22;34136;51.022;7.082;2023-02-13T01:41:05;8.60;6.20
48328;DHT22;34136;51.022;7.082;2023-02-13T01:43:55;8.70;6.00
48328;DHT22;34136;51.022;7.082;2023-02-13T01:46:42;8.70;5.80
48328;DHT22;34136;51.022;7.082;2023-02-13T01:49:29;8.70;5.90
48328;DHT22;34136;51.022;7.082;2023-02-13T01:52:16;8.70;6.30
48328;DHT22;34136;51.022;7.082;2023-02-13T01:55:07;8.70;6.10
48328;DHT22;34136;51.022;7.082;2023-02-13T01:58:00;8.70;6.20
48328;DHT22;34136;51.022;7.082;2023-02-13T02:00:47;8.70;5.80
48328;DHT22;34136;51.022;7.082;2023-02-13T02:03:53;8.60;6.00
48328;DHT22;34136;51.022;7.082;2023-02-13T02:06:47;8.60;6.30
48328;DHT22;34136;51.022;7.082;2023-02-13T02:09:44;8.60;6.40
48328;DHT22;34136;51.022;7.082;2023-02-13T02:12:52;8.60;6.70
48328;DHT22;34136;51.022;7.082;2023-02-13T02:15:41;8.60;6.50
48328;DHT22;34136;51.022;7.082;2023-02-13T02:18:28;8.60;6.70
48328;DHT22;34136;51.022;7.082;2023-02-13T02:24:46;8.60;6.70
48328;DHT22;34136;51.022;7.082;2023-02-13T02:37:05;8.50;7.10
48328;DHT22;34136;51.022;7.082;2023-02-13T02:42:54;8.60;6.50
48328;DHT22;34136;51.022;7.082;2023-02-13T02:48:49;8.60;6.40
48328;DHT22;34136;51.022;7.082;2023-02-13T02:54:40;8.60;6.60
48328;DHT22;34136;51.022;7.082;2023-02-13T02:57:31;8.70;6.20
48328;DHT22;34136;51.022;7.082;2023-02-13T03:00:20;8.70;6.80
48328;DHT22;34136;51.022;7.082;2023-02-13T03:03:16;8.70;6.40
48328;DHT22;34136;51.022;7.082;2023-02-13T03:06:08;8.60;6.30
48328;DHT22;34136;51.022;7.082;2023-02-13T03:09:03;8.60;7.00
48328;DHT22;34136;51.022;7.082;2023-02-13T03:11:53;8.60;7.20
48328;DHT22;34136;51.022;7.082;2023-02-13T03:14:41;8.60;7.00
48328;DHT22;34136;51.022;7.082;2023-02-13T03:17:27;8.60;6.60
48328;DHT22;34136;51.022;7.082;2023-02-13T03:21:19;8.60;6.80
48328;DHT22;34136;51.022;7.082;2023-02-13T03:23:43;8.60;6.90
48328;DHT22;34136;51.022;7.082;2023-02-13T03:26:47;8.60;6.90
48328;DHT22;34136;51.022;7.082;2023-02-13T03:29:45;8.60;6.70
48328;DHT22;34136;51.022;7.082;2023-02-13T03:32:42;8.60;6.90
48328;DHT22;34136;51.022;7.082;2023-02-13T03:35:35;8.50;6.90
48328;DHT22;34136;51.022;7.082;2023-02-13T03:38:49;8.50;7.50
48328;DHT22;34136;51.022;7.082;2023-02-13T03:41:44;8.50;7.60
48328;DHT22;34136;51.022;7.082;2023-02-13T03:47:31;8.50;7.10
48328;DHT22;34136;51.022;7.082;2023-02-13T03:50:17;8.40;7.50
48328;DHT22;34136;51.022;7.082;2023-02-13T03:53:08;8.50;7.70
48328;DHT22;34136;51.022;7.082;2023-02-13T03:55:56;8.50;7.10
48328;DHT22;34136;51.022;7.082;2023-02-13T03:58:49;8.60;6.70
48328;DHT22;34136;51.022;7.082;2023-02-13T04:01:37;8.50;6.20
48328;DHT22;34136;51.022;7.082;2023-02-13T04:07:27;8.40;6.50
48328;DHT22;34136;51.022;7.082;2023-02-13T04:10:15;8.40;6.60
48328;DHT22;34136;51.022;7.082;2023-02-13T04:13:15;8.30;6.70
48328;DHT22;34136;51.022;7.082;2023-02-13T04:16:15;8.30;7.00
48328;DHT22;34136;51.022;7.082;2023-02-13T04:19:04;8.30;7.20
48328;DHT22;34136;51.022;7.082;2023-02-13T04:21:57;8.40;6.80
48328;DHT22;34136;51.022;7.082;2023-02-13T04:24:44;8.50;6.40
48328;DHT22;34136;51.022;7.082;2023-02-13T04:27:31;8.50;6.50
48328;DHT22;34136;51.022;7.082;2023-02-13T04:30:17;8.40;6.60
48328;DHT22;34136;51.022;7.082;2023-02-13T04:33:03;8.40;6.50
48328;DHT22;34136;51.022;7.082;2023-02-13T04:35:49;8.40;6.80
48328;DHT22;34136;51.022;7.082;2023-02-13T04:38:36;8.30;6.60
48328;DHT22;34136;51.022;7.082;2023-02-13T04:41:22;8.30;6.40
48328;DHT22;34136;51.022;7.082;2023-02-13T04:44:08;8.30;6.20
48328;DHT22;34136;51.022;7.082;2023-02-13T04:46:54;8.30;6.00
48328;DHT22;34136;51.022;7.082;2023-02-13T04:49:40;8.30;6.60
48328;DHT22;34136;51.022;7.082;2023-02-13T04:52:27;8.20;6.40
48328;DHT22;34136;51.022;7.082;2023-02-13T04:55:13;8.20;6.10
48328;DHT22;34136;51.022;7.082;2023-02-13T04:58:00;8.20;6.40
48328;DHT22;34136;51.022;7.082;2023-02-13T05:00:46;8.30;6.50
48328;DHT22;34136;51.022;7.082;2023-02-13T05:03:33;8.30;6.10
48328;DHT22;34136;51.022;7.082;2023-02-13T05:06:19;8.20;6.00
48328;DHT22;34136;51.022;7.082;2023-02-13T05:09:05;8.20;6.70
48328;DHT22;34136;51.022;7.082;2023-02-13T05:11:52;8.20;6.50
48328;DHT22;34136;51.022;7.082;2023-02-13T05:14:38;8.20;6.40
48328;DHT22;34136;51.022;7.082;2023-02-13T05:17:25;8.20;6.20
48328;DHT22;34136;51.022;7.082;2023-02-13T05:20:12;8.20;6.10
48328;DHT22;34136;51.022;7.082;2023-02-13T05:22:59;8.20;6.30
48328;DHT22;34136;51.022;7.082;2023-02-13T05:25:48;8.20;5.90
48328;DHT22;34136;51.022;7.082;2023-02-13T05:28:35;8.20;6.10
48328;DHT22;34136;51.022;7.082;2023-02-13T05:31:21;8.10;5.90
48328;DHT22;34136;51.022;7.082;2023-02-13T05:34:07;8.10;6.20
48328;DHT22;34136;51.022;7.082;2023-02-13T05:36:54;8.10;5.70
48328;DHT22;34136;51.022;7.082;2023-02-13T05:39:40;8.00;5.90
48328;DHT22;34136;51.022;7.082;2023-02-13T05:42:26;8.00;6.10
48328;DHT22;34136;51.022;7.082;2023-02-13T05:45:13;8.00;6.00
48328;DHT22;34136;51.022;7.082;2023-02-13T05:47:59;8.00;5.80
48328;DHT22;34136;51.022;7.082;2023-02-13T05:50:46;8.00;6.60
48328;DHT22;34136;51.022;7.082;2023-02-13T05:53:32;8.00;6.70
48328;DHT22;34136;51.022;7.082;2023-02-13T05:56:18;7.90;6.40
48328;DHT22;34136;51.022;7.082;2023-02-13T05:59:05;7.90;6.60
48328;DHT22;34136;51.022;7.082;2023-02-13T06:01:51;8.00;6.50
48328;DHT22;34136;51.022;7.082;2023-02-13T06:04:38;7.90;6.60
48328;DHT22;34136;51.022;7.082;2023-02-13T06:07:24;7.80;6.90
48328;DHT22;34136;51.022;7.082;2023-02-13T06:10:10;7.80;6.90
48328;DHT22;34136;51.022;7.082;2023-02-13T06:12:57;7.70;7.00
48328;DHT22;34136;51.022;7.082;2023-02-13T06:15:43;7.70;7.20
48328;DHT22;34136;51.022;7.082;2023-02-13T06:18:30;7.70;7.00
48328;DHT22;34136;51.022;7.082;2023-02-13T06:21:16;7.70;6.80
48328;DHT22;34136;51.022;7.082;2023-02-13T06:24:06;7.70;7.20
48328;DHT22;34136;51.022;7.082;2023-02-13T06:26:52;7.70;7.10
48328;DHT22;34136;51.022;7.082;2023-02-13T06:29:39;7.70;6.80
48328;DHT22;34136;51.022;7.082;2023-02-13T06:32:25;7.70;6.90
48328;DHT22;34136;51.022;7.082;2023-02-13T06:35:12;7.60;7.00
48328;DHT22;34136;51.022;7.082;2023-02-13T06:37:58;7.60;6.80
48328;DHT22;34136;51.022;7.082;2023-02-13T06:40:46;7.60;6.80
48328;DHT22;34136;51.022;7.082;2023-02-13T06:43:32;7.60;6.70
48328;DHT22;34136;51.022;7.082;2023-02-13T06:46:18;7.50;7.40
48328;DHT22;34136;51.022;7.082;2023-02-13T06:49:04;7.40;7.90
48328;DHT22;34136;51.022;7.082;2023-02-13T06:51:51;7.40;7.70
48328;DHT22;34136;51.022;7.082;2023-02-13T06:54:37;7.30;8.20
48328;DHT22;34136;51.022;7.082;2023-02-13T06:57:23;7.30;9.40
48328;DHT22;34136;51.022;7.082;2023-02-13T07:00:11;7.20;8.80
48328;DHT22;34136;51.022;7.082;2023-02-13T07:03:03;7.20;9.60
48328;DHT22;34136;51.022;7.082;2023-02-13T07:05:53;7.20;9.40
48328;DHT22;34136;51.022;7.082;2023-02-13T07:08:39;7.10;9.50
48328;DHT22;34136;51.022;7.082;2023-02-13T07:11:25;7.10;9.50
48328;DHT22;34136;51.022;7.082;2023-02-13T07:14:12;7.10;9.40
48328;DHT22;34136;51.022;7.082;2023-02-13T07:16:57;7.20;8.80
48328;DHT22;34136;51.022;7.082;2023-02-13T07:19:44;7.10;8.80
48328;DHT22;34136;51.022;7.082;2023-02-13T07:22:33;7.10;8.70
48328;DHT22;34136;51.022;7.082;2023-02-13T07:25:20;7.10;8.70
48328;DHT22;34136;51.022;7.082;2023-02-13T07:28:08;7.10;8.80
48328;DHT22;34136;51.022;7.082;2023-02-13T07:30:55;7.10;9.30
48328;DHT22;34136;51.022;7.082;2023-02-13T07:33:41;7.00;9.00
48328;DHT22;34136;51.022;7.082;2023-02-13T07:36:28;7.00;9.20
48328;DHT22;34136;51.022;7.082;2023-02-13T07:39:15;7.00;9.20
48328;DHT22;34136;51.022;7.082;2023-02-13T07:42:01;7.00;9.40
48328;DHT22;34136;51.022;7.082;2023-02-13T07:44:47;7.00;9.90
48328;DHT22;34136;51.022;7.082;2023-02-13T07:47:33;7.00;9.90
48328;DHT22;34136;51.022;7.082;2023-02-13T07:50:20;6.90;10.10
48328;DHT22;34136;51.022;7.082;2023-02-13T07:53:06;7.00;10.40
48328;DHT22;34136;51.022;7.082;2023-02-13T07:55:52;6.90;10.70
48328;DHT22;34136;51.022;7.082;2023-02-13T07:58:38;6.90;10.70
48328;DHT22;34136;51.022;7.082;2023-02-13T08:01:24;7.00;10.90
48328;DHT22;34136;51.022;7.082;2023-02-13T08:04:10;6.90;10.80
48328;DHT22;34136;51.022;7.082;2023-02-13T08:06:56;7.00;10.90
48328;DHT22;34136;51.022;7.082;2023-02-13T08:09:45;7.00;10.60
48328;DHT22;34136;51.022;7.082;2023-02-13T08:12:34;7.10;10.50
48328;DHT22;34136;51.022;7.082;2023-02-13T08:15:20;7.10;10.20
48328;DHT22;34136;51.022;7.082;2023-02-13T08:18:06;7.10;10.20
48328;DHT22;34136;51.022;7.082;2023-02-13T08:20:52;7.10;10.10
48328;DHT22;34136;51.022;7.082;2023-02-13T08:23:38;7.20;9.70
48328;DHT22;34136;51.022;7.082;2023-02-13T08:26:24;7.30;9.40
48328;DHT22;34136;51.022;7.082;2023-02-13T08:29:10;7.30;9.20
48328;DHT22;34136;51.022;7.082;2023-02-13T08:31:56;7.30;8.50
48328;DHT22;34136;51.022;7.082;2023-02-13T08:34:42;7.30;8.20
48328;DHT22;34136;51.022;7.082;2023-02-13T08:37:29;7.40;8.00
48328;DHT22;34136;51.022;7.082;2023-02-13T08:40:15;7.50;7.40
48328;DHT22;34136;51.022;7.082;2023-02-13T08:43:04;7.60;6.80
48328;DHT22;34136;51.022;7.082;2023-02-13T08:45:51;7.70;5.80
48328;DHT22;34136;51.022;7.082;2023-02-13T08:48:37;7.70;5.00
48328;DHT22;34136;51.022;7.082;2023-02-13T08:51:23;7.80;4.20
48328;DHT22;34136;51.022;7.082;2023-02-13T08:54:09;7.90;3.80
48328;DHT22;34136;51.022;7.082;2023-02-13T08:56:55;8.00;2.70
48328;DHT22;34136;51.022;7.082;2023-02-13T08:59:41;8.10;1.00
48328;DHT22;34136;51.022;7.082;2023-02-13T09:02:28;8.20;1.10
48328;DHT22;34136;51.022;7.082;2023-02-13T09:05:14;8.30;1.00
48328;DHT22;34136;51.022;7.082;2023-02-13T09:08:01;8.40;1.00
48328;DHT22;34136;51.022;7.082;2023-02-13T09:10:55;8.40;1.00
48328;DHT22;34136;51.022;7.082;2023-02-13T09:13:42;8.50;1.00
48328;DHT22;34136;51.022;7.082;2023-02-13T09:16:28;8.50;1.00
48328;DHT22;34136;51.022;7.082;2023-02-13T09:19:15;8.60;1.00
48328;DHT22;34136;51.022;7.082;2023-02-13T09:22:01;8.80;1.00
48328;DHT22;34136;51.022;7.082;2023-02-13T09:24:49;8.90;1.00
48328;DHT22;34136;51.022;7.082;2023-02-13T09:27:36;9.00;1.00
48328;DHT22;34136;51.022;7.082;2023-02-13T09:30:23;9.10;1.00
48328;DHT22;34136;51.022;7.082;2023-02-13T09:33:10;9.10;1.00
48328;DHT22;34136;51.022;7.082;2023-02-13T09:35:56;9.10;1.00
48328;DHT22;34136;51.022;7.082;2023-02-13T09:38:42;9.30;1.00
48328;DHT22;34136;51.022;7.082;2023-02-13T09:41:38;9.40;1.00
48328;DHT22;34136;51.022;7.082;2023-02-13T09:44:37;9.50;1.00
48328;DHT22;34136;51.022;7.082;2023-02-13T09:47:36;9.60;1.00
48328;DHT22;34136;51.022;7.082;2023-02-13T09:50:28;9.70;1.00
48328;DHT22;34136;51.022;7.082;2023-02-13T09:53:21;9.90;1.00
48328;DHT22;34136;51.022;7.082;2023-02-13T09:56:16;10.00;1.00
48328;DHT22;34136;51.022;7.082;2023-02-13T10:08:16;10.50;1.00
48328;DHT22;34136;51.022;7.082;2023-02-13T10:11:39;10.60;1.00
48328;DHT22;34136;51.022;7.082;2023-02-13T10:18:21;10.80;1.00
48328;DHT22;34136;51.022;7.082;2023-02-13T10:21:09;10.90;1.00
48328;DHT22;34136;51.022;7.082;2023-02-13T10:24:00;10.90;1.00
48328;DHT22;34136;51.022;7.082;2023-02-13T10:26:49;11.00;1.00
48328;DHT22;34136;51.022;7.082;2023-02-13T10:29:41;11.20;1.00
48328;DHT22;34136;51.022;7.082;2023-02-13T10:32:41;11.20;1.00
48328;DHT22;34136;51.022;7.082;2023-02-13T10:35:29;11.30;1.00
48328;DHT22;34136;51.022;7.082;2023-02-13T10:38:18;11.40;1.00
48328;DHT22;34136;51.022;7.082;2023-02-13T10:47:43;11.90;1.00
48328;DHT22;34136;51.022;7.082;2023-02-13T11:04:17;12.30;1.00
48328;DHT22;34136;51.022;7.082;2023-02-13T11:07:11;12.30;1.00
48328;DHT22;34136;51.022;7.082;2023-02-13T11:10:04;12.40;1.00
48328;DHT22;34136;51.022;7.082;2023-02-13T11:12:54;12.60;1.00
48328;DHT22;34136;51.022;7.082;2023-02-13T11:15:40;12.60;1.00
48328;DHT22;34136;51.022;7.082;2023-02-13T11:18:29;12.90;1.00
48328;DHT22;34136;51.022;7.082;2023-02-13T11:21:20;13.00;1.00
48328;DHT22;34136;51.022;7.082;2023-02-13T11:24:17;13.20;1.00
48328;DHT22;34136;51.022;7.082;2023-02-13T11:27:06;13.20;1.00
48328;DHT22;34136;51.022;7.082;2023-02-13T11:29:58;13.30;1.00
48328;DHT22;34136;51.022;7.082;2023-02-13T11:32:59;13.40;1.00
48328;DHT22;34136;51.022;7.082;2023-02-13T11:35:46;13.50;1.00
48328;DHT22;34136;51.022;7.082;2023-02-13T11:38:32;13.60;1.00
48328;DHT22;34136;51.022;7.082;2023-02-13T11:41:19;13.60;1.00
48328;DHT22;34136;51.022;7.082;2023-02-13T11:44:21;13.60;1.00
48328;DHT22;34136;51.022;7.082;2023-02-13T11:47:08;13.80;1.00
48328;DHT22;34136;51.022;7.082;2023-02-13T11:49:55;14.00;1.00
48328;DHT22;34136;51.022;7.082;2023-02-13T11:52:42;13.90;1.00
48328;DHT22;34136;51.022;7.082;2023-02-13T11:55:39;13.90;1.00
48328;DHT22;34136;51.022;7.082;2023-02-13T11:58:27;14.00;1.00
48328;DHT22;34136;51.022;7.082;2023-02-13T12:01:32;14.20;1.00
48328;DHT22;34136;51.022;7.082;2023-02-13T12:04:20;14.20;1.00
48328;DHT22;34136;51.022;7.082;2023-02-13T12:07:28;14.40;1.00
48328;DHT22;34136;51.022;7.082;2023-02-13T12:10:16;14.40;1.00
48328;DHT22;34136;51.022;7.082;2023-02-13T12:13:37;14.50;1.00
48328;DHT22;34136;51.022;7.082;2023-02-13T12:16:43;14.60;1.00
48328;DHT22;34136;51.022;7.082;2023-02-13T12:19:37;14.70;1.00
48328;DHT22;34136;51.022;7.082;2023-02-13T12:31:31;14.80;1.00
48328;DHT22;34136;51.022;7.082;2023-02-13T12:52:16;15.30;1.00
48328;DHT22;34136;51.022;7.082;2023-02-13T13:01:12;15.30;1.00
48328;DHT22;34136;51.022;7.082;2023-02-13T13:04:31;15.40;1.00
48328;DHT22;34136;51.022;7.082;2023-02-13T13:22:54;15.70;1.00
48328;DHT22;34136;51.022;7.082;2023-02-13T13:28:47;15.80;1.00
48328;DHT22;34136;51.022;7.082;2023-02-13T13:42:40;15.80;1.00
48328;DHT22;34136;51.022;7.082;2023-02-13T13:49:15;16.00;1.00
48328;DHT22;34136;51.022;7.082;2023-02-13T13:52:26;16.00;1.00
48328;DHT22;34136;51.022;7.082;2023-02-13T13:58:45;15.90;1.00
48328;DHT22;34136;51.022;7.082;2023-02-13T14:01:31;15.90;1.00
48328;DHT22;34136;51.022;7.082;2023-02-13T14:04:38;15.90;1.00
48328;DHT22;34136;51.022;7.082;2023-02-13T14:07:24;16.00;1.00
48328;DHT22;34136;51.022;7.082;2023-02-13T14:13:34;16.00;1.00
48328;DHT22;34136;51.022;7.082;2023-02-13T14:16:40;16.00;1.00
48328;DHT22;34136;51.022;7.082;2023-02-13T14:19:38;15.90;1.00
48328;DHT22;34136;51.022;7.082;2023-02-13T14:25:25;15.90;1.00
48328;DHT22;34136;51.022;7.082;2023-02-13T14:31:06;15.90;1.00
48328;DHT22;34136;51.022;7.082;2023-02-13T14:33:55;15.80;1.00
48328;DHT22;34136;51.022;7.082;2023-02-13T14:36:47;15.90;1.00
48328;DHT22;34136;51.022;7.082;2023-02-13T14:40:10;15.90;1.00
48328;DHT22;34136;51.022;7.082;2023-02-13T14:46:40;15.80;1.00
48328;DHT22;34136;51.022;7.082;2023-02-13T14:49:31;15.90;1.00
48328;DHT22;34136;51.022;7.082;2023-02-13T14:52:23;15.90;1.00
48328;DHT22;34136;51.022;7.082;2023-02-13T14:55:16;15.80;1.00
48328;DHT22;34136;51.022;7.082;2023-02-13T14:58:10;15.70;1.00
48328;DHT22;34136;51.022;7.082;2023-02-13T15:07:18;15.60;1.00
48328;DHT22;34136;51.022;7.082;2023-02-13T15:13:17;15.50;1.00
48328;DHT22;34136;51.022;7.082;2023-02-13T15:16:08;15.50;1.00
48328;DHT22;34136;51.022;7.082;2023-02-13T15:18:56;15.40;1.00
48328;DHT22;34136;51.022;7.082;2023-02-13T15:21:57;15.40;1.00
48328;DHT22;34136;51.022;7.082;2023-02-13T15:24:46;15.40;1.00
48328;DHT22;34136;51.022;7.082;2023-02-13T15:27:41;15.30;1.00
48328;DHT22;34136;51.022;7.082;2023-02-13T15:30:29;15.30;1.00
48328;DHT22;34136;51.022;7.082;2023-02-13T15:33:18;15.30;1.00
48328;DHT22;34136;51.022;7.082;2023-02-13T15:36:05;15.20;1.00
48328;DHT22;34136;51.022;7.082;2023-02-13T15:39:05;15.20;1.00
48328;DHT22;34136;51.022;7.082;2023-02-13T15:41:54;15.20;1.00
48328;DHT22;34136;51.022;7.082;2023-02-13T15:44:44;15.10;1.00
48328;DHT22;34136;51.022;7.082;2023-02-13T15:47:31;15.00;1.00
48328;DHT22;34136;51.022;7.082;2023-02-13T15:50:32;15.00;1.00
48328;DHT22;34136;51.022;7.082;2023-02-13T15:53:18;15.00;1.00
48328;DHT22;34136;51.022;7.082;2023-02-13T15:56:05;14.90;1.00
48328;DHT22;34136;51.022;7.082;2023-02-13T15:58:52;14.80;1.00
48328;DHT22;34136;51.022;7.082;2023-02-13T16:01:40;14.80;1.00
48328;DHT22;34136;51.022;7.082;2023-02-13T16:04:27;14.80;1.00
48328;DHT22;34136;51.022;7.082;2023-02-13T16:07:13;14.80;1.00
48328;DHT22;34136;51.022;7.082;2023-02-13T16:13:15;14.70;1.00
48328;DHT22;34136;51.022;7.082;2023-02-13T16:16:07;14.60;1.00
48328;DHT22;34136;51.022;7.082;2023-02-13T16:18:54;14.50;1.00
48328;DHT22;34136;51.022;7.082;2023-02-13T16:21:41;14.40;1.00
48328;DHT22;34136;51.022;7.082;2023-02-13T16:24:27;14.40;1.00
48328;DHT22;34136;51.022;7.082;2023-02-13T16:27:14;14.30;1.00
48328;DHT22;34136;51.022;7.082;2023-02-13T16:30:04;14.20;1.00
48328;DHT22;34136;51.022;7.082;2023-02-13T16:32:51;14.10;1.00
48328;DHT22;34136;51.022;7.082;2023-02-13T16:35:39;13.90;1.00
48328;DHT22;34136;51.022;7.082;2023-02-13T16:38:35;13.80;1.00
48328;DHT22;34136;51.022;7.082;2023-02-13T16:44:22;13.70;1.00
48328;DHT22;34136;51.022;7.082;2023-02-13T16:47:23;13.70;1.00
48328;DHT22;34136;51.022;7.082;2023-02-13T16:50:15;13.50;1.00
48328;DHT22;34136;51.022;7.082;2023-02-13T16:53:02;13.40;1.00
48328;DHT22;34136;51.022;7.082;2023-02-13T16:55:57;13.30;1.00
48328;DHT22;34136;51.022;7.082;2023-02-13T16:58:43;13.30;1.00
48328;DHT22;34136;51.022;7.082;2023-02-13T17:01:29;13.20;1.00
48328;DHT22;34136;51.022;7.082;2023-02-13T17:04:22;12.90;1.00
48328;DHT22;34136;51.022;7.082;2023-02-13T17:07:20;12.70;1.00
48328;DHT22;34136;51.022;7.082;2023-02-13T17:10:20;12.50;1.00
48328;DHT22;34136;51.022;7.082;2023-02-13T17:13:15;12.40;1.00
48328;DHT22;34136;51.022;7.082;2023-02-13T17:16:02;12.30;1.00
48328;DHT22;34136;51.022;7.082;2023-02-13T17:18:51;12.20;1.00
48328;DHT22;34136;51.022;7.082;2023-02-13T17:21:38;12.10;1.00
48328;DHT22;34136;51.022;7.082;2023-02-13T17:24:24;12.00;1.00
48328;DHT22;34136;51.022;7.082;2023-02-13T17:27:10;11.90;1.00
48328;DHT22;34136;51.022;7.082;2023-02-13T17:29:56;11.90;1.00
48328;DHT22;34136;51.022;7.082;2023-02-13T17:32:44;11.60;1.00
48328;DHT22;34136;51.022;7.082;2023-02-13T17:35:31;11.50;1.00
48328;DHT22;34136;51.022;7.082;2023-02-13T17:38:17;11.40;1.00
48328;DHT22;34136;51.022;7.082;2023-02-13T17:41:07;11.30;1.00
48328;DHT22;34136;51.022;7.082;2023-02-13T17:43:57;11.20;1.00
48328;DHT22;34136;51.022;7.082;2023-02-13T17:46:43;11.10;1.00
48328;DHT22;34136;51.022;7.082;2023-02-13T17:49:29;11.00;1.00
48328;DHT22;34136;51.022;7.082;2023-02-13T17:52:20;11.00;1.00
48328;DHT22;34136;51.022;7.082;2023-02-13T17:55:34;10.90;1.00
48328;DHT22;34136;51.022;7.082;2023-02-13T17:58:21;10.80;1.00
48328;DHT22;34136;51.022;7.082;2023-02-13T18:03:56;10.60;1.00
48328;DHT22;34136;51.022;7.082;2023-02-13T18:06:43;10.60;1.00
48328;DHT22;34136;51.022;7.082;2023-02-13T18:09:29;10.50;1.00
48328;DHT22;34136;51.022;7.082;2023-02-13T18:12:22;10.30;1.00
48328;DHT22;34136;51.022;7.082;2023-02-13T18:15:09;10.20;1.00
48328;DHT22;34136;51.022;7.082;2023-02-13T18:17:56;10.10;1.00
48328;DHT22;34136;51.022;7.082;2023-02-13T18:20:42;10.00;1.00
48328;DHT22;34136;51.022;7.082;2023-02-13T18:23:28;9.90;1.00
48328;DHT22;34136;51.022;7.082;2023-02-13T18:26:14;9.80;1.00
48328;DHT22;34136;51.022;7.082;2023-02-13T18:29:03;9.70;1.00
48328;DHT22;34136;51.022;7.082;2023-02-13T18:31:53;9.70;1.00
48328;DHT22;34136;51.022;7.082;2023-02-13T18:34:42;9.60;1.00
48328;DHT22;34136;51.022;7.082;2023-02-13T18:37:31;9.50;1.00
48328;DHT22;34136;51.022;7.082;2023-02-13T18:40:22;9.40;1.00
48328;DHT22;34136;51.022;7.082;2023-02-13T18:43:08;9.30;1.00
48328;DHT22;34136;51.022;7.082;2023-02-13T18:45:54;9.20;1.00
48328;DHT22;34136;51.022;7.082;2023-02-13T18:48:40;9.20;1.00
48328;DHT22;34136;51.022;7.082;2023-02-13T18:51:26;9.10;1.00
48328;DHT22;34136;51.022;7.082;2023-02-13T18:54:12;9.10;1.00
48328;DHT22;34136;51.022;7.082;2023-02-13T19:00:38;8.90;1.00
48328;DHT22;34136;51.022;7.082;2023-02-13T19:03:24;8.80;1.00
48328;DHT22;34136;51.022;7.082;2023-02-13T19:06:13;8.70;1.00
48328;DHT22;34136;51.022;7.082;2023-02-13T19:09:02;8.60;1.00
48328;DHT22;34136;51.022;7.082;2023-02-13T19:11:50;8.60;1.00
48328;DHT22;34136;51.022;7.082;2023-02-13T19:14:38;8.60;1.00
48328;DHT22;34136;51.022;7.082;2023-02-13T19:17:27;8.60;1.00
48328;DHT22;34136;51.022;7.082;2023-02-13T19:20:14;8.40;1.00
48328;DHT22;34136;51.022;7.082;2023-02-13T19:23:00;8.30;1.00
48328;DHT22;34136;51.022;7.082;2023-02-13T19:25:47;8.10;1.00
48328;DHT22;34136;51.022;7.082;2023-02-13T19:28:34;8.00;1.00
48328;DHT22;34136;51.022;7.082;2023-02-13T19:31:22;7.90;1.00
48328;DHT22;34136;51.022;7.082;2023-02-13T19:34:08;7.90;1.00
48328;DHT22;34136;51.022;7.082;2023-02-13T19:36:55;7.90;1.00
48328;DHT22;34136;51.022;7.082;2023-02-13T19:39:41;7.80;1.00
48328;DHT22;34136;51.022;7.082;2023-02-13T19:42:27;7.80;1.00
48328;DHT22;34136;51.022;7.082;2023-02-13T19:45:13;7.70;1.00
48328;DHT22;34136;51.022;7.082;2023-02-13T19:47:59;7.70;1.00
48328;DHT22;34136;51.022;7.082;2023-02-13T19:50:45;7.80;1.00
48328;DHT22;34136;51.022;7.082;2023-02-13T19:53:31;7.80;1.00
48328;DHT22;34136;51.022;7.082;2023-02-13T19:56:17;7.80;1.00
48328;DHT22;34136;51.022;7.082;2023-02-13T19:59:04;7.80;1.00
48328;DHT22;34136;51.022;7.082;2023-02-13T20:01:50;7.70;1.00
48328;DHT22;34136;51.022;7.082;2023-02-13T20:04:37;7.80;1.00
48328;DHT22;34136;51.022;7.082;2023-02-13T20:07:23;7.70;1.00
48328;DHT22;34136;51.022;7.082;2023-02-13T20:10:13;7.70;1.00
48328;DHT22;34136;51.022;7.082;2023-02-13T20:12:59;7.70;1.00
48328;DHT22;34136;51.022;7.082;2023-02-13T20:15:45;7.70;1.00
48328;DHT22;34136;51.022;7.082;2023-02-13T20:18:33;7.70;1.00
48328;DHT22;34136;51.022;7.082;2023-02-13T20:21:20;7.70;1.00
48328;DHT22;34136;51.022;7.082;2023-02-13T20:24:08;7.70;1.00
48328;DHT22;34136;51.022;7.082;2023-02-13T20:26:54;7.60;1.00
48328;DHT22;34136;51.022;7.082;2023-02-13T20:29:41;7.60;1.00
48328;DHT22;34136;51.022;7.082;2023-02-13T20:32:27;7.60;1.00
48328;DHT22;34136;51.022;7.082;2023-02-13T20:35:13;7.60;1.00
48328;DHT22;34136;51.022;7.082;2023-02-13T20:38:01;7.60;1.00
48328;DHT22;34136;51.022;7.082;2023-02-13T20:40:49;7.70;1.00
48328;DHT22;34136;51.022;7.082;2023-02-13T20:43:35;7.70;1.00
48328;DHT22;34136;51.022;7.082;2023-02-13T20:46:22;7.70;1.00
48328;DHT22;34136;51.022;7.082;2023-02-13T20:49:10;7.70;1.00
48328;DHT22;34136;51.022;7.082;2023-02-13T20:51:57;7.70;1.00
48328;DHT22;34136;51.022;7.082;2023-02-13T20:54:43;7.70;1.00
48328;DHT22;34136;51.022;7.082;2023-02-13T20:57:32;7.80;1.00
48328;DHT22;34136;51.022;7.082;2023-02-13T21:00:18;7.80;1.00
48328;DHT22;34136;51.022;7.082;2023-02-13T21:03:05;7.80;1.00